createdAt,value
2019-02-21T00:02:28.808Z,12.60
2019-02-21T00:07:47.951Z,12.60
2019-02-21T00:12:59.872Z,12.60
2019-02-21T00:18:11.161Z,12.60
2019-02-21T00:23:23.154Z,12.60
2019-02-21T00:28:34.804Z,12.60
2019-02-21T00:33:46.719Z,12.60
2019-02-21T00:38:57.963Z,12.60
2019-02-21T00:44:09.822Z,12.50
2019-02-21T00:49:21.433Z,12.50
2019-02-21T00:54:33.352Z,12.50
2019-02-21T00:59:45.238Z,12.50
2019-02-21T01:04:55.191Z,12.40
2019-02-21T01:10:14.090Z,12.40
2019-02-21T01:15:26.569Z,12.40
2019-02-21T01:20:38.256Z,12.40
2019-02-21T01:25:50.451Z,12.40
2019-02-21T01:31:02.296Z,12.30
2019-02-21T01:36:14.018Z,12.30
2019-02-21T01:41:26.015Z,12.30
2019-02-21T01:46:37.915Z,12.30
2019-02-21T01:51:49.679Z,12.30
2019-02-21T01:57:01.824Z,12.30
2019-02-21T02:02:13.404Z,12.30
2019-02-21T02:07:26.252Z,12.30
2019-02-21T02:12:38.087Z,12.30
2019-02-21T02:17:49.937Z,12.20
2019-02-21T02:23:01.851Z,12.30
2019-02-21T02:28:14.012Z,12.30
2019-02-21T02:33:25.296Z,12.30
2019-02-21T02:38:37.386Z,12.30
2019-02-21T02:43:49.060Z,12.30
2019-02-21T02:49:01.079Z,12.30
2019-02-21T02:54:12.827Z,12.30
2019-02-21T02:59:24.786Z,12.30
2019-02-21T03:04:36.196Z,12.30
2019-02-21T03:09:36.153Z,12.20
2019-02-21T03:14:55.050Z,12.20
2019-02-21T03:20:06.952Z,12.20
2019-02-21T03:25:18.682Z,12.20
2019-02-21T03:30:30.868Z,12.20
2019-02-21T03:35:42.690Z,12.10
2019-02-21T03:40:54.716Z,12.10
2019-02-21T03:46:06.008Z,12.20
2019-02-21T03:51:17.534Z,12.10
2019-02-21T03:56:29.972Z,12.10
2019-02-21T04:01:41.855Z,12.10
2019-02-21T04:06:53.191Z,12.10
2019-02-21T04:12:05.411Z,12.10
2019-02-21T04:17:17.332Z,12.10
2019-02-21T04:22:29.720Z,12.10
2019-02-21T04:27:41.581Z,12.10
2019-02-21T04:32:53.075Z,12.00
2019-02-21T04:38:04.887Z,12.00
2019-02-21T04:43:16.660Z,12.00
2019-02-21T04:48:28.320Z,11.90
2019-02-21T04:53:40.611Z,12.00
2019-02-21T04:58:51.887Z,12.00
2019-02-21T05:04:04.895Z,12.00
2019-02-21T05:09:17.267Z,11.90
2019-02-21T05:14:29.491Z,11.90
2019-02-21T05:19:41.257Z,11.80
2019-02-21T05:24:52.781Z,11.80
2019-02-21T05:30:05.545Z,11.80
2019-02-21T05:35:27.232Z,11.80
2019-02-21T05:40:58.452Z,11.70
2019-02-21T05:46:29.018Z,11.70
2019-02-21T05:51:48.495Z,11.70
2019-02-21T05:57:12.249Z,11.70
2019-02-21T06:02:53.105Z,11.70
2019-02-21T06:08:18.272Z,11.70
2019-02-21T06:13:44.630Z,11.70
2019-02-21T06:19:33.284Z,11.60
2019-02-21T06:24:53.775Z,11.60
2019-02-21T06:30:27.916Z,11.50
2019-02-21T06:35:39.835Z,11.50
2019-02-21T06:40:51.988Z,11.50
2019-02-21T06:46:03.819Z,11.50
2019-02-21T06:51:15.899Z,11.50
2019-02-21T06:56:27.372Z,11.50
2019-02-21T07:01:38.980Z,11.40
2019-02-21T07:06:50.636Z,11.40
2019-02-21T07:12:02.476Z,11.40
2019-02-21T07:17:14.532Z,11.40
2019-02-21T07:22:26.371Z,11.40
2019-02-21T07:27:38.689Z,11.40
2019-02-21T07:32:50.415Z,11.40
2019-02-21T07:38:02.379Z,11.30
2019-02-21T07:43:14.170Z,11.30
2019-02-21T07:48:26.189Z,11.30
2019-02-21T07:53:37.555Z,11.40
2019-02-21T07:58:49.698Z,11.30
2019-02-21T08:04:01.807Z,11.30
2019-02-21T08:09:13.767Z,11.40
2019-02-21T08:14:25.440Z,11.40
2019-02-21T08:19:38.173Z,11.40
2019-02-21T08:24:50.259Z,11.40
2019-02-21T08:30:02.053Z,11.40
2019-02-21T08:35:13.768Z,11.50
2019-02-21T08:40:25.572Z,11.50
2019-02-21T08:45:37.632Z,11.50
2019-02-21T08:50:49.795Z,11.60
2019-02-21T08:56:01.877Z,11.70
2019-02-21T09:01:13.327Z,11.90
2019-02-21T09:06:24.886Z,12.00
2019-02-21T09:11:36.525Z,12.10
2019-02-21T09:16:48.419Z,12.10
2019-02-21T09:21:59.733Z,12.30
2019-02-21T09:27:11.075Z,12.30
2019-02-21T09:32:21.074Z,12.40
2019-02-21T09:37:39.954Z,12.50
2019-02-21T09:42:51.148Z,12.50
2019-02-21T09:48:02.932Z,12.60
2019-02-21T09:53:15.359Z,12.70
2019-02-21T09:58:27.276Z,12.80
2019-02-21T10:03:39.360Z,12.90
2019-02-21T10:08:51.024Z,12.90
2019-02-21T10:14:02.956Z,12.90
2019-02-21T10:19:15.060Z,13.00
2019-02-21T10:24:27.043Z,13.00
2019-02-21T10:29:38.398Z,13.10
2019-02-21T10:34:52.794Z,13.10
2019-02-21T10:40:03.370Z,13.30
2019-02-21T10:45:14.926Z,13.30
2019-02-21T10:50:26.172Z,13.40
2019-02-21T10:55:37.874Z,13.40
2019-02-21T11:00:49.987Z,13.50
2019-02-21T11:06:01.254Z,13.60
2019-02-21T11:11:12.748Z,13.70
2019-02-21T11:16:24.813Z,13.70
2019-02-21T11:21:36.779Z,13.80
2019-02-21T11:26:48.918Z,13.90
2019-02-21T11:32:00.848Z,14.10
2019-02-21T11:37:12.229Z,14.20
2019-02-21T11:42:24.372Z,14.30
2019-02-21T11:47:36.444Z,14.30
2019-02-21T11:52:47.859Z,14.40
2019-02-21T11:58:00.389Z,14.50
2019-02-21T12:03:12.128Z,14.60
2019-02-21T12:08:23.444Z,14.70
2019-02-21T12:13:35.499Z,14.80
2019-02-21T12:18:47.062Z,15.00
2019-02-21T12:23:58.364Z,15.00
2019-02-21T12:29:10.447Z,15.10
2019-02-21T12:34:22.488Z,15.10
2019-02-21T12:39:33.792Z,15.20
2019-02-21T12:44:47.804Z,15.30
2019-02-21T12:49:58.815Z,15.40
2019-02-21T12:55:10.640Z,15.50
2019-02-21T13:00:22.703Z,15.50
2019-02-21T13:05:41.149Z,15.50
2019-02-21T13:10:48.107Z,15.40
2019-02-21T13:16:00.339Z,15.40
2019-02-21T13:21:15.089Z,15.30
2019-02-21T13:26:26.530Z,15.30
2019-02-21T13:31:37.969Z,15.30
2019-02-21T13:36:49.936Z,15.30
2019-02-21T13:42:02.052Z,15.30
2019-02-21T13:47:14.004Z,15.30
2019-02-21T13:52:25.953Z,15.30
2019-02-21T13:57:37.645Z,15.30
2019-02-21T14:02:49.844Z,15.30
2019-02-21T14:08:01.542Z,15.40
2019-02-21T14:13:13.553Z,15.30
2019-02-21T14:18:26.503Z,15.30
2019-02-21T14:23:37.979Z,15.40
2019-02-21T14:28:49.944Z,15.30
2019-02-21T14:34:01.240Z,15.30
2019-02-21T14:39:13.196Z,15.30
2019-02-21T14:44:24.944Z,15.30
2019-02-21T14:49:36.907Z,15.30
2019-02-21T14:54:48.759Z,15.30
2019-02-21T15:00:00.435Z,15.30
2019-02-21T15:05:12.104Z,15.20
2019-02-21T15:10:23.375Z,15.20
2019-02-21T15:15:35.865Z,15.20
2019-02-21T15:20:47.262Z,15.20
2019-02-21T15:26:00.316Z,15.20
2019-02-21T15:31:12.314Z,15.20
2019-02-21T15:36:24.231Z,15.10
2019-02-21T15:41:35.769Z,15.10
2019-02-21T15:46:35.450Z,15.00
2019-02-21T15:51:35.094Z,15.00
2019-02-21T15:56:47.183Z,14.90
2019-02-21T16:01:59.075Z,14.90
2019-02-21T16:07:10.371Z,14.80
2019-02-21T16:12:21.974Z,14.80
2019-02-21T16:17:37.142Z,14.70
2019-02-21T16:22:47.768Z,14.70
2019-02-21T16:27:57.839Z,14.70
2019-02-21T16:33:16.747Z,14.60
2019-02-21T16:38:28.856Z,14.60
2019-02-21T16:43:40.111Z,14.60
2019-02-21T16:48:52.414Z,14.50
2019-02-21T16:54:03.911Z,14.40
2019-02-21T16:59:15.792Z,14.40
2019-02-21T17:04:27.824Z,14.40
2019-02-21T17:09:39.824Z,14.30
2019-02-21T17:14:52.044Z,14.30
2019-02-21T17:20:03.942Z,14.30
2019-02-21T17:25:16.215Z,14.30
2019-02-21T17:30:27.884Z,14.30
2019-02-21T17:35:39.697Z,14.30
2019-02-21T17:40:51.562Z,14.20
2019-02-21T17:51:32.415Z,14.20
2019-02-21T17:56:44.651Z,14.20
2019-02-21T18:01:56.099Z,14.10
2019-02-21T18:07:07.782Z,14.10
2019-02-21T18:12:20.099Z,14.10
2019-02-21T18:17:32.110Z,14.10
2019-02-21T18:22:43.713Z,14.10
2019-02-21T18:27:55.015Z,14.10
2019-02-21T18:33:07.001Z,14.00
2019-02-21T18:38:06.747Z,13.90
2019-02-21T18:43:25.645Z,13.90
2019-02-21T18:48:36.983Z,13.90
2019-02-21T18:53:48.860Z,13.90
2019-02-21T18:59:00.603Z,13.80
2019-02-21T19:04:11.883Z,13.80
2019-02-21T19:09:23.231Z,13.70
2019-02-21T19:14:35.161Z,13.70
2019-02-21T19:19:47.247Z,13.70
2019-02-21T19:24:59.000Z,13.70
2019-02-21T19:30:10.966Z,13.70
2019-02-21T19:35:26.335Z,13.70
2019-02-21T19:40:38.564Z,13.70
2019-02-21T19:45:50.775Z,13.70
2019-02-21T19:51:02.552Z,13.60
2019-02-21T19:56:13.851Z,13.60
2019-02-21T20:01:25.964Z,13.50
2019-02-21T20:06:37.204Z,13.50
2019-02-21T20:11:49.361Z,13.50
2019-02-21T20:17:00.862Z,13.50
2019-02-21T20:22:12.175Z,13.40
2019-02-21T20:27:24.003Z,13.30
2019-02-21T20:32:35.454Z,13.30
2019-02-21T20:37:47.316Z,13.30
2019-02-21T20:42:59.419Z,13.30
2019-02-21T20:48:09.378Z,13.30
2019-02-21T20:53:28.268Z,13.30
2019-02-21T20:58:40.507Z,13.30
2019-02-21T21:03:52.544Z,13.40
2019-02-21T21:09:04.840Z,13.30
2019-02-21T21:14:17.816Z,13.30
2019-02-21T21:19:29.319Z,13.30
2019-02-21T21:24:41.087Z,13.30
2019-02-21T21:29:52.456Z,13.30
2019-02-21T21:35:04.348Z,13.30
2019-02-21T21:40:16.400Z,13.20
2019-02-21T21:45:28.403Z,13.20
2019-02-21T21:50:40.383Z,13.20
2019-02-21T21:55:52.301Z,13.20
2019-02-21T22:01:03.600Z,13.20
2019-02-21T22:06:15.159Z,13.20
2019-02-21T22:11:26.644Z,13.20
2019-02-21T22:16:38.493Z,13.20
2019-02-21T22:21:49.903Z,13.20
2019-02-21T22:27:01.875Z,13.20
2019-02-21T22:32:14.968Z,13.20
2019-02-21T22:37:27.008Z,13.20
2019-02-21T22:42:38.875Z,13.20
2019-02-21T22:47:50.595Z,13.20
2019-02-21T22:53:02.339Z,13.10
2019-02-21T22:58:13.672Z,13.10
2019-02-21T23:03:13.476Z,13.10
2019-02-21T23:08:51.709Z,13.10
2019-02-21T23:14:03.599Z,13.10
2019-02-21T23:19:15.789Z,13.10
2019-02-21T23:24:28.320Z,13.10
2019-02-21T23:29:40.029Z,13.00
2019-02-21T23:34:53.729Z,13.00
2019-02-21T23:40:05.255Z,13.00
2019-02-21T23:45:16.520Z,13.00
2019-02-21T23:50:28.075Z,12.90
2019-02-21T23:55:40.032Z,13.00
